This is the latest recevied weather packets stored in our database for station/object OE-11051. If no packets are shown the sender has not sent any weather packets the latest 10 day(s).
| Time | Temp. | Humidity | Pressure | Rain* | Wind** | Luminosity | Snow |
|---|---|---|---|---|---|---|---|
| 1787994680 | 20.56° C | 64% | 1018 hPa | 0 mm | - | 606 W/m² | - |
| 1787994307 | 20.56° C | 62% | 1017.8 hPa | 0 mm | - | 522 W/m² | - |
| 1787993707 | 20° C | 64% | 1018.1 hPa | 0 mm | - | 587 W/m² | - |
| 1787992879 | 20.56° C | 65% | 1017.9 hPa | 0 mm | - | 574 W/m² | - |
| 1787992506 | 20° C | 66% | 1018 hPa | 0 mm | - | 548 W/m² | - |
| 1787991907 | 20° C | 69% | 1017.9 hPa | 0 mm | - | 522 W/m² | - |
| 1787991080 | 19.44° C | 69% | 1017.9 hPa | 0 mm | - | 503 W/m² | - |
| 1787990706 | 18.89° C | 70% | 1018 hPa | 0 mm | - | 477 W/m² | - |
| 1787990107 | 18.89° C | 71% | 1018 hPa | 0 mm | - | 458 W/m² | - |
| 1787989279 | 18.33° C | 72% | 1018.1 hPa | 0 mm | - | 432 W/m² | - |
| 1787988907 | 18.33° C | 76% | 1018.1 hPa | 0 mm | - | 387 W/m² | - |
| 1787988306 | 18.33° C | 76% | 1018.1 hPa | 0 mm | - | 374 W/m² | - |
| 1787987480 | 17.78° C | 76% | 1018 hPa | 0 mm | - | 348 W/m² | - |
| 1787987107 | 17.22° C | 78% | 1018.2 hPa | 0 mm | - | 322 W/m² | - |
| 1787986507 | 16.67° C | 79% | 1018.2 hPa | 0 mm | - | 290 W/m² | - |
| 1787985680 | 16.67° C | 81% | 1018.1 hPa | 0 mm | - | 264 W/m² | - |
| 1787985306 | 16.67° C | 80% | 1018.2 hPa | 0 mm | - | 239 W/m² | - |
| 1787984707 | 16.11° C | 82% | 1018 hPa | 0 mm | - | 213 W/m² | - |
| 1787983880 | 15.56° C | 85% | 1018 hPa | 0 mm | - | 187 W/m² | - |
| 1787982907 | 15° C | 87% | 1018 hPa | 0 mm | - | 135 W/m² | - |
| 1787982079 | 14.44° C | 90% | 1018.1 hPa | 0 mm | - | 110 W/m² | - |
| 1787981707 | 14.44° C | 91% | 1018 hPa | 0 mm | - | 84 W/m² | - |
| 1787981106 | 13.89° C | 93% | 1018 hPa | 0 mm | - | 64 W/m² | - |
| 1787980279 | 13.33° C | 94% | 1018.1 hPa | 0 mm | - | 45 W/m² | - |
| 1787979906 | 13.33° C | 96% | 1017.9 hPa | 0 mm | - | 19 W/m² | - |
* Rain latest hour (hover to see other rain measurements)
** Current wind speed in m/s (hover to see current wind gust speed)